Time;durP1;ratioP1;P1;durP2;ratioP2;P2;SDS_P1;SDS_P2;PMS_P1;PMS_P2;Temp;Humidity;BMP_temperature;BMP_pressure;BME280_temperature;BME280_humidity;BME280_pressure;Samples;Min_cycle;Max_cycle;Signal;HPM_P1;HPM_P2
2022/03/13 00:00:49;;;;;;;12.27;7.35;;;5.30;88.70;;;;;;5025739;28;20518;-65
2022/03/13 00:03:17;;;;;;;11.93;6.97;;;5.30;88.70;;;;;;5006022;28;20125;-65
2022/03/13 00:05:45;;;;;;;9.25;6.80;;;5.30;88.10;;;;;;5023025;28;20136;-65
2022/03/13 00:08:34;;;;;;;12.15;7.47;;;5.30;88.20;;;;;;5025929;28;20045;-65
2022/03/13 00:11:17;;;;;;;13.90;7.53;;;5.20;88.50;;;;;;5025115;28;20171;-65
2022/03/13 00:13:51;;;;;;;8.38;5.63;;;5.20;88.10;;;;;;5026222;28;20116;-65
2022/03/13 00:16:18;;;;;;;13.13;7.30;;;5.20;88.90;;;;;;5007417;28;20407;-65
2022/03/13 00:18:48;;;;;;;12.82;8.30;;;5.00;89.60;;;;;;5025908;28;20102;-66
2022/03/13 00:21:20;;;;;;;12.07;7.20;;;5.00;89.80;;;;;;5025141;28;20084;-66
2022/03/13 00:23:47;;;;;;;13.65;8.60;;;5.00;90.20;;;;;;5025501;28;20447;-65
2022/03/13 00:26:15;;;;;;;18.75;8.57;;;4.90;90.30;;;;;;5008032;28;20077;-65
2022/03/13 00:28:42;;;;;;;14.57;8.27;;;4.90;90.10;;;;;;5025536;28;20102;-65
2022/03/13 00:31:07;;;;;;;16.00;7.88;;;4.80;90.30;;;;;;4990643;28;20037;-65
2022/03/13 00:33:34;;;;;;;13.18;8.48;;;4.80;90.00;;;;;;5025266;28;20119;-65
2022/03/13 00:36:00;;;;;;;15.45;7.40;;;4.90;90.20;;;;;;5009997;28;20041;-65
2022/03/13 00:38:26;;;;;;;15.93;7.35;;;4.80;89.80;;;;;;4988658;28;20049;-65
2022/03/13 00:40:55;;;;;;;15.85;7.72;;;4.80;89.40;;;;;;5026750;28;20045;-65
2022/03/13 00:43:22;;;;;;;11.20;7.63;;;4.90;89.10;;;;;;5007749;28;20562;-65
2022/03/13 00:45:48;;;;;;;12.68;7.30;;;4.80;87.50;;;;;;5026442;28;20088;-65
2022/03/13 00:48:15;;;;;;;10.75;7.25;;;4.90;86.60;;;;;;5021369;28;20463;-65
2022/03/13 00:50:40;;;;;;;12.68;7.75;;;4.90;87.10;;;;;;5026500;28;20045;-65
2022/03/13 00:53:06;;;;;;;10.02;6.50;;;4.80;88.00;;;;;;5007903;28;20045;-65
2022/03/13 00:55:33;;;;;;;9.93;6.82;;;4.80;88.90;;;;;;5026745;28;20072;-65
2022/03/13 00:57:59;;;;;;;20.30;7.28;;;4.70;89.40;;;;;;5021174;28;20411;-65
2022/03/13 01:00:25;;;;;;;12.23;6.88;;;4.70;89.80;;;;;;5008528;28;20045;-65
2022/03/13 01:02:51;;;;;;;9.70;7.10;;;4.70;90.50;;;;;;5024110;28;20053;-65
2022/03/13 01:05:22;;;;;;;13.05;7.90;;;4.70;90.80;;;;;;5004901;28;20049;-65
2022/03/13 01:07:48;;;;;;;14.65;7.13;;;4.60;91.20;;;;;;5017087;28;20053;-65
2022/03/13 01:10:14;;;;;;;12.00;7.55;;;4.50;91.50;;;;;;5007139;28;20045;-65
2022/03/13 01:12:40;;;;;;;14.43;7.90;;;4.50;92.00;;;;;;5025818;28;20053;-65
2022/03/13 01:15:08;;;;;;;11.93;7.60;;;4.40;92.00;;;;;;4988184;28;20049;-65
2022/03/13 01:17:34;;;;;;;10.07;7.53;;;4.50;92.10;;;;;;5020927;28;20053;-65
2022/03/13 01:20:02;;;;;;;17.58;7.47;;;4.50;92.30;;;;;;5026024;28;20050;-65
2022/03/13 01:22:28;;;;;;;11.73;6.85;;;4.40;92.50;;;;;;5025452;28;20060;-65
2022/03/13 01:24:54;;;;;;;14.35;7.40;;;4.40;92.60;;;;;;5026076;28;20033;-65
2022/03/13 01:27:21;;;;;;;13.82;7.68;;;4.40;92.30;;;;;;5025507;28;20042;-65
2022/03/13 01:29:47;;;;;;;15.98;8.45;;;4.40;92.30;;;;;;5026042;28;20060;-65
2022/03/13 01:32:13;;;;;;;15.40;8.50;;;4.40;92.30;;;;;;5025382;28;20522;-65
2022/03/13 01:34:43;;;;;;;11.73;8.10;;;4.40;92.30;;;;;;5005339;28;20042;-65
2022/03/13 01:37:27;;;;;;;13.18;7.90;;;4.40;92.40;;;;;;5025236;28;20045;-65
2022/03/13 01:39:54;;;;;;;11.48;7.60;;;4.40;92.70;;;;;;5026365;28;20492;-65
2022/03/13 01:42:20;;;;;;;11.50;7.68;;;4.20;93.10;;;;;;5024942;28;20128;-65
2022/03/13 01:44:46;;;;;;;11.85;8.00;;;4.30;93.50;;;;;;5026245;28;20049;-65
2022/03/13 01:47:11;;;;;;;11.88;7.13;;;4.20;93.90;;;;;;5004363;28;20045;-65
2022/03/13 01:49:38;;;;;;;15.32;7.90;;;4.20;94.10;;;;;;5017160;28;20057;-66
2022/03/13 01:52:04;;;;;;;14.93;7.93;;;4.20;94.30;;;;;;5026086;28;20038;-65
2022/03/13 01:54:30;;;;;;;11.85;8.02;;;4.20;94.30;;;;;;5005818;28;20034;-65
2022/03/13 01:56:57;;;;;;;12.45;7.78;;;4.20;94.50;;;;;;5025214;28;20065;-65
2022/03/13 01:59:23;;;;;;;13.63;6.85;;;4.20;94.40;;;;;;5028675;28;20124;-65
2022/03/13 02:01:48;;;;;;;13.73;7.60;;;4.30;94.60;;;;;;5029607;28;20160;-65
2022/03/13 02:04:22;;;;;;;13.80;8.10;;;4.20;94.50;;;;;;5011281;28;20403;-65
2022/03/13 02:06:50;;;;;;;12.10;8.10;;;4.20;94.60;;;;;;5029589;28;20088;-65
2022/03/13 02:09:16;;;;;;;14.30;8.20;;;4.20;94.70;;;;;;5028911;28;20503;-65
2022/03/13 02:11:42;;;;;;;10.52;7.88;;;4.20;94.60;;;;;;5029753;28;20046;-65
2022/03/13 02:14:11;;;;;;;10.75;7.45;;;4.20;94.70;;;;;;5011988;28;20591;-65
2022/03/13 02:16:37;;;;;;;12.85;8.73;;;4.20;94.60;;;;;;5025710;28;20785;-65
2022/03/13 02:19:05;;;;;;;17.52;8.93;;;4.20;94.80;;;;;;5024352;28;20056;-65
2022/03/13 02:21:38;;;;;;;18.90;7.68;;;4.20;94.80;;;;;;5016069;28;20096;-65
2022/03/13 02:24:10;;;;;;;15.27;7.65;;;4.30;94.60;;;;;;5029309;28;20399;-65
2022/03/13 02:26:37;;;;;;;18.50;7.93;;;4.30;94.80;;;;;;5029698;28;20369;-65
2022/03/13 02:29:03;;;;;;;11.60;8.23;;;4.30;94.70;;;;;;5029117;28;20049;-65
2022/03/13 02:31:36;;;;;;;12.00;8.18;;;4.20;94.40;;;;;;4991574;28;20053;-65
2022/03/13 02:34:14;;;;;;;11.25;8.15;;;4.30;94.70;;;;;;5021957;28;20060;-65
2022/03/13 02:36:43;;;;;;;13.70;7.85;;;4.20;94.80;;;;;;5008183;28;20100;-65
2022/03/13 02:39:11;;;;;;;12.27;8.18;;;4.30;94.80;;;;;;5019837;28;20053;-65
2022/03/13 02:41:40;;;;;;;11.73;8.00;;;4.30;95.20;;;;;;5027495;28;20056;-66
2022/03/13 02:44:08;;;;;;;14.95;8.50;;;4.30;94.70;;;;;;5029098;28;20125;-65
2022/03/13 02:46:48;;;;;;;14.18;8.43;;;4.20;95.20;;;;;;5027281;28;20496;-65
2022/03/13 02:49:19;;;;;;;10.85;7.63;;;4.20;95.60;;;;;;5028566;28;20048;-65
2022/03/13 02:51:47;;;;;;;12.57;8.45;;;4.10;96.00;;;;;;5028813;28;20391;-65
2022/03/13 02:54:14;;;;;;;15.15;8.82;;;4.10;96.60;;;;;;5028769;28;20076;-65
2022/03/13 02:56:40;;;;;;;16.05;9.18;;;4.00;97.00;;;;;;5026837;28;20049;-65
2022/03/13 02:59:06;;;;;;;13.18;8.82;;;3.90;97.50;;;;;;5007430;28;20132;-65
2022/03/13 03:01:32;;;;;;;14.25;8.32;;;3.90;97.80;;;;;;5022929;28;20124;-65
2022/03/13 03:04:01;;;;;;;15.05;8.18;;;3.80;98.30;;;;;;5028763;28;20041;-65
2022/03/13 03:06:32;;;;;;;16.00;8.93;;;3.80;98.90;;;;;;5010333;28;20041;-65
2022/03/13 03:09:01;;;;;;;16.48;8.82;;;3.80;99.50;;;;;;5008852;28;20304;-65
2022/03/13 03:11:27;;;;;;;18.90;8.90;;;3.70;99.60;;;;;;5027988;28;20041;-65
2022/03/13 03:13:54;;;;;;;11.45;7.97;;;3.70;99.90;;;;;;5028138;28;20606;-65
2022/03/13 03:16:20;;;;;;;16.92;9.23;;;3.70;99.90;;;;;;5026960;28;20124;-65
2022/03/13 03:18:46;;;;;;;13.32;8.55;;;3.70;99.90;;;;;;5003138;28;20045;-65
2022/03/13 03:21:13;;;;;;;12.27;8.27;;;3.60;99.90;;;;;;5028245;28;20041;-65
2022/03/13 03:23:39;;;;;;;12.65;8.82;;;3.60;99.90;;;;;;5028243;28;20048;-65
2022/03/13 03:26:06;;;;;;;12.43;8.60;;;3.60;99.90;;;;;;5009466;28;20093;-65
2022/03/13 03:28:34;;;;;;;13.25;9.30;;;3.50;99.90;;;;;;5006579;28;20464;-65
2022/03/13 03:31:02;;;;;;;12.00;8.25;;;3.50;99.90;;;;;;5022854;28;20455;-65
2022/03/13 03:33:28;;;;;;;14.10;9.23;;;3.50;99.90;;;;;;5027883;28;20105;-65
2022/03/13 03:35:54;;;;;;;11.15;9.25;;;3.50;99.90;;;;;;4990794;28;20053;-65
2022/03/13 03:38:20;;;;;;;16.65;8.57;;;3.60;99.90;;;;;;4988719;28;20042;-65
2022/03/13 03:40:47;;;;;;;15.02;8.88;;;3.50;99.90;;;;;;5019663;28;20045;-65
2022/03/13 03:43:13;;;;;;;13.05;8.65;;;3.50;99.80;;;;;;5028079;28;20549;-65
2022/03/13 03:45:40;;;;;;;11.55;8.85;;;3.40;99.90;;;;;;5006508;28;20046;-65
2022/03/13 03:48:05;;;;;;;18.70;8.48;;;3.30;99.90;;;;;;5006135;28;20426;-65
2022/03/13 03:50:31;;;;;;;11.05;8.35;;;3.40;99.90;;;;;;5027401;28;20037;-65
2022/03/13 03:52:57;;;;;;;21.55;8.98;;;3.50;99.40;;;;;;5027652;28;20049;-65
2022/03/13 03:55:24;;;;;;;12.30;8.57;;;3.50;99.30;;;;;;5018413;28;20446;-65
2022/03/13 03:57:50;;;;;;;13.15;9.57;;;3.50;99.40;;;;;;4993841;28;20431;-65
2022/03/13 04:00:16;;;;;;;13.57;8.25;;;3.60;98.70;;;;;;5027535;28;20612;-65
2022/03/13 04:02:43;;;;;;;12.10;8.32;;;3.60;98.40;;;;;;5006360;28;20287;-65
2022/03/13 04:05:12;;;;;;;19.05;9.20;;;3.70;98.60;;;;;;5004471;28;20058;-65
2022/03/13 04:07:38;;;;;;;16.05;9.48;;;3.70;98.40;;;;;;5027131;28;20568;-65
2022/03/13 04:10:05;;;;;;;15.35;8.43;;;3.70;98.00;;;;;;5005804;28;20129;-65
2022/03/13 04:12:34;;;;;;;13.32;8.38;;;3.70;98.00;;;;;;5005261;28;20041;-65
2022/03/13 04:15:03;;;;;;;11.15;8.13;;;3.70;97.90;;;;;;5009711;28;20423;-65
2022/03/13 04:17:31;;;;;;;14.40;8.63;;;3.70;98.00;;;;;;5016420;28;20124;-65
2022/03/13 04:19:58;;;;;;;16.00;8.68;;;3.60;97.70;;;;;;5006711;28;20093;-65
2022/03/13 04:22:24;;;;;;;16.70;8.55;;;3.60;97.80;;;;;;4999857;28;20518;-65
2022/03/13 04:24:50;;;;;;;15.48;8.60;;;3.60;97.70;;;;;;5006026;28;20042;-65
2022/03/13 04:27:15;;;;;;;11.82;8.18;;;3.60;97.40;;;;;;5012957;28;20357;-65
2022/03/13 04:29:42;;;;;;;13.07;8.35;;;3.60;97.40;;;;;;5006603;28;20076;-65
2022/03/13 04:32:08;;;;;;;11.05;7.80;;;3.60;97.10;;;;;;5027231;28;20511;-65
2022/03/13 04:34:35;;;;;;;15.48;8.13;;;3.60;97.50;;;;;;5026300;28;20041;-65
2022/03/13 04:37:02;;;;;;;14.30;8.32;;;3.60;97.50;;;;;;5025653;28;20491;-65
2022/03/13 04:39:33;;;;;;;15.23;8.10;;;3.50;97.70;;;;;;5026366;28;20438;-65
2022/03/13 04:41:59;;;;;;;13.13;8.30;;;3.50;97.50;;;;;;5026929;28;20479;-65
2022/03/13 04:44:25;;;;;;;10.55;7.90;;;3.50;97.90;;;;;;5008303;28;20045;-65
2022/03/13 04:46:50;;;;;;;14.30;8.00;;;3.50;97.60;;;;;;5025618;28;20034;-65
2022/03/13 04:49:16;;;;;;;9.50;7.93;;;3.40;97.40;;;;;;5008935;28;20163;-65
2022/03/13 04:51:42;;;;;;;10.75;7.38;;;3.40;97.10;;;;;;5004909;28;20572;-66
2022/03/13 04:54:08;;;;;;;14.60;7.65;;;3.50;97.00;;;;;;4995552;28;20049;-65
2022/03/13 04:56:34;;;;;;;12.85;8.05;;;3.50;96.80;;;;;;5006304;28;20096;-65
2022/03/13 04:59:00;;;;;;;13.07;8.02;;;3.40;96.20;;;;;;5006153;28;20423;-65
2022/03/13 05:01:26;;;;;;;13.45;7.63;;;3.40;95.80;;;;;;5006007;28;20049;-65
2022/03/13 05:03:53;;;;;;;9.80;7.75;;;3.50;95.50;;;;;;5006890;28;20034;-65
2022/03/13 05:06:19;;;;;;;9.85;6.88;;;3.40;95.30;;;;;;4970045;28;20054;-65
2022/03/13 05:08:45;;;;;;;12.20;7.60;;;3.40;95.00;;;;;;5003891;28;20053;-65
2022/03/13 05:11:10;;;;;;;13.43;8.02;;;3.40;94.60;;;;;;4985796;28;20574;-65
2022/03/13 05:13:36;;;;;;;10.65;7.60;;;3.30;94.20;;;;;;4997641;28;20052;-65
2022/03/13 05:16:02;;;;;;;10.35;7.55;;;3.30;94.40;;;;;;5006933;28;20117;-65
2022/03/13 05:18:29;;;;;;;12.75;8.20;;;3.20;94.50;;;;;;4985405;28;20199;-65
2022/03/13 05:20:55;;;;;;;13.95;7.53;;;3.10;95.80;;;;;;5002534;28;20041;-65
2022/03/13 05:23:21;;;;;;;15.35;8.82;;;3.10;96.20;;;;;;4985945;28;20121;-65
2022/03/13 05:25:47;;;;;;;10.65;7.55;;;3.00;96.50;;;;;;4999943;28;20052;-65
2022/03/13 05:28:12;;;;;;;14.02;7.85;;;2.90;96.70;;;;;;5005676;28;20042;-65
2022/03/13 05:30:39;;;;;;;10.43;7.45;;;2.90;97.00;;;;;;4969048;28;20038;-65
2022/03/13 05:33:06;;;;;;;12.10;8.32;;;2.80;96.70;;;;;;4969561;28;20481;-65
2022/03/13 05:35:33;;;;;;;13.30;7.20;;;2.90;96.50;;;;;;4975280;28;20121;-65
2022/03/13 05:37:59;;;;;;;11.70;6.32;;;3.00;96.00;;;;;;5003144;28;20114;-65
2022/03/13 05:40:25;;;;;;;16.63;7.80;;;3.20;95.00;;;;;;5006510;28;20416;-65
2022/03/13 05:42:58;;;;;;;9.07;7.13;;;3.30;94.70;;;;;;5005343;28;20057;-65
2022/03/13 05:45:25;;;;;;;12.68;7.10;;;3.40;93.70;;;;;;5006238;28;20054;-65
2022/03/13 05:47:55;;;;;;;11.23;7.00;;;3.40;94.30;;;;;;5005426;28;20553;-65
2022/03/13 05:50:23;;;;;;;11.45;7.10;;;3.30;94.60;;;;;;5006590;28;20049;-65
2022/03/13 05:52:49;;;;;;;10.43;6.38;;;3.30;94.00;;;;;;4971728;28;20046;-65
2022/03/13 05:55:17;;;;;;;13.38;6.63;;;3.30;93.80;;;;;;5006435;28;20053;-65
2022/03/13 05:57:43;;;;;;;10.45;7.30;;;3.40;93.10;;;;;;5004909;28;20049;-65
2022/03/13 06:00:11;;;;;;;10.90;6.72;;;3.40;93.30;;;;;;5006041;28;20081;-65
2022/03/13 06:02:40;;;;;;;10.07;6.55;;;3.50;91.90;;;;;;5005651;28;20034;-65
2022/03/13 06:05:08;;;;;;;10.15;6.43;;;3.60;91.70;;;;;;4986774;28;20064;-65
2022/03/13 06:07:35;;;;;;;8.77;6.18;;;3.60;90.90;;;;;;5005457;28;20152;-65
2022/03/13 06:10:04;;;;;;;10.77;7.13;;;3.60;91.20;;;;;;4984822;28;20062;-65
2022/03/13 06:12:31;;;;;;;7.10;5.30;;;3.70;90.60;;;;;;4984232;28;20137;-65
2022/03/13 06:14:57;;;;;;;10.63;6.47;;;3.80;89.30;;;;;;4985253;28;20058;-65
2022/03/13 06:17:24;;;;;;;7.30;5.68;;;3.80;86.60;;;;;;5000433;28;20038;-65
2022/03/13 06:19:50;;;;;;;9.38;6.10;;;3.90;86.90;;;;;;5005340;28;20439;-65
2022/03/13 06:22:17;;;;;;;10.13;6.10;;;3.90;86.60;;;;;;4972302;28;20053;-65
2022/03/13 06:24:43;;;;;;;8.93;5.65;;;3.90;87.60;;;;;;4987942;28;20057;-65
2022/03/13 06:27:09;;;;;;;13.20;6.20;;;4.00;88.40;;;;;;4987788;28;20037;-65
2022/03/13 06:29:35;;;;;;;8.85;5.80;;;3.90;88.80;;;;;;4988228;28;20038;-65
2022/03/13 06:32:01;;;;;;;11.85;6.40;;;3.90;89.10;;;;;;5005411;28;20161;-66
2022/03/13 06:34:27;;;;;;;10.13;6.90;;;3.90;91.50;;;;;;5005801;28;20053;-65
2022/03/13 06:36:52;;;;;;;9.75;5.68;;;3.90;91.60;;;;;;4984111;28;20042;-65
2022/03/13 06:39:18;;;;;;;10.35;6.50;;;3.90;92.10;;;;;;5004778;28;20046;-65
2022/03/13 06:41:44;;;;;;;10.65;6.20;;;3.90;93.30;;;;;;5007056;28;20441;-65
2022/03/13 06:44:09;;;;;;;9.55;5.85;;;3.90;91.80;;;;;;4991344;28;20069;-65
2022/03/13 06:46:35;;;;;;;7.60;5.93;;;4.00;91.90;;;;;;4955593;28;20094;-65
2022/03/13 06:49:05;;;;;;;8.38;6.38;;;4.10;90.80;;;;;;4981230;28;20056;-65
2022/03/13 06:51:31;;;;;;;11.47;7.03;;;4.30;90.40;;;;;;5009754;28;20076;-65
2022/03/13 06:53:57;;;;;;;9.20;6.28;;;4.30;90.00;;;;;;5008475;28;20588;-65
2022/03/13 06:56:23;;;;;;;8.63;6.80;;;4.20;88.60;;;;;;5009005;28;20085;-65
2022/03/13 06:58:48;;;;;;;14.27;6.00;;;4.20;85.50;;;;;;4990566;28;20073;-65
2022/03/13 07:01:14;;;;;;;10.32;6.63;;;4.20;83.30;;;;;;4975620;28;20132;-65
2022/03/13 07:03:42;;;;;;;8.90;6.45;;;4.20;85.30;;;;;;5008518;28;20053;-65
2022/03/13 07:06:07;;;;;;;11.23;6.13;;;4.30;82.80;;;;;;4988049;28;20130;-65
2022/03/13 07:08:33;;;;;;;9.88;6.32;;;4.30;82.70;;;;;;5004965;28;20153;-65
2022/03/13 07:11:03;;;;;;;9.05;6.22;;;4.30;83.00;;;;;;5008479;28;20030;-65
2022/03/13 07:13:32;;;;;;;15.07;6.90;;;4.40;82.20;;;;;;4991424;28;20129;-65
2022/03/13 07:16:03;;;;;;;14.82;6.65;;;4.40;80.60;;;;;;5008354;28;20280;-65
2022/03/13 07:18:32;;;;;;;13.65;6.95;;;4.50;81.20;;;;;;4983843;28;20053;-65
2022/03/13 07:20:58;;;;;;;11.35;6.32;;;4.50;80.60;;;;;;4983234;28;20046;-65
2022/03/13 07:23:24;;;;;;;12.63;6.22;;;4.60;80.00;;;;;;5002070;28;20116;-65
2022/03/13 07:25:50;;;;;;;10.35;6.50;;;4.70;78.80;;;;;;5001001;28;20127;-65
2022/03/13 07:28:17;;;;;;;10.77;6.05;;;4.90;78.70;;;;;;4983533;28;20130;-65
2022/03/13 07:30:43;;;;;;;8.50;6.28;;;5.00;75.40;;;;;;4982790;28;20045;-65
2022/03/13 07:33:10;;;;;;;15.10;6.30;;;5.10;76.60;;;;;;4983511;28;20050;-65
2022/03/13 07:35:36;;;;;;;9.77;6.68;;;5.20;75.80;;;;;;5001121;28;20124;-66
2022/03/13 07:38:03;;;;;;;11.75;6.00;;;5.20;77.00;;;;;;4986538;28;20069;-65
2022/03/13 07:40:29;;;;;;;9.00;6.38;;;5.30;79.40;;;;;;4990450;28;20060;-65
2022/03/13 07:42:56;;;;;;;8.80;6.68;;;5.30;78.90;;;;;;5007420;28;20054;-65
2022/03/13 07:45:23;;;;;;;13.15;7.35;;;5.40;76.70;;;;;;4983976;28;20156;-65
2022/03/13 07:47:49;;;;;;;12.85;7.38;;;5.50;78.10;;;;;;5007006;28;20068;-65
2022/03/13 07:50:15;;;;;;;13.43;6.18;;;5.50;78.30;;;;;;4990172;28;20488;-65
2022/03/13 07:52:41;;;;;;;15.10;6.97;;;5.60;78.10;;;;;;5007447;28;20042;-65
2022/03/13 07:55:08;;;;;;;10.73;6.82;;;5.70;77.40;;;;;;5009363;28;20068;-65
2022/03/13 07:57:34;;;;;;;9.82;6.88;;;5.70;76.10;;;;;;5027244;28;20076;-65
2022/03/13 07:59:59;;;;;;;10.20;6.30;;;5.80;76.20;;;;;;5007678;28;20485;-65
2022/03/13 08:02:28;;;;;;;16.33;6.78;;;5.90;77.60;;;;;;5009953;28;20041;-65
2022/03/13 08:04:54;;;;;;;10.40;6.65;;;5.90;78.00;;;;;;5006410;28;20125;-65
2022/03/13 08:07:19;;;;;;;9.73;6.50;;;6.10;77.30;;;;;;5027259;28;20065;-65
2022/03/13 08:09:45;;;;;;;12.38;6.53;;;6.20;77.00;;;;;;5026339;28;20045;-65
2022/03/13 08:12:11;;;;;;;11.45;6.90;;;6.40;76.10;;;;;;5007769;28;20046;-65
2022/03/13 08:14:37;;;;;;;12.85;6.35;;;6.50;73.20;;;;;;5009084;28;20076;-65
2022/03/13 08:17:03;;;;;;;10.02;6.82;;;6.70;73.10;;;;;;5026427;28;20029;-65
2022/03/13 08:19:29;;;;;;;8.50;6.07;;;6.80;72.60;;;;;;5026784;28;20037;-65
2022/03/13 08:21:55;;;;;;;9.18;6.20;;;6.90;70.30;;;;;;5009827;28;20495;-65
2022/03/13 08:24:21;;;;;;;9.15;6.65;;;7.00;71.00;;;;;;5027006;28;20040;-65
2022/03/13 08:26:47;;;;;;;14.25;7.35;;;7.10;66.00;;;;;;5026938;28;20087;-65
2022/03/13 08:29:15;;;;;;;11.75;6.55;;;7.10;68.00;;;;;;5026681;28;20087;-65
2022/03/13 08:31:40;;;;;;;15.15;6.72;;;7.20;69.70;;;;;;5009270;28;20057;-65
2022/03/13 08:34:08;;;;;;;16.35;6.38;;;7.20;69.60;;;;;;4992188;28;20085;-65
2022/03/13 08:36:43;;;;;;;14.43;6.60;;;7.30;69.60;;;;;;5009087;28;20093;-65
2022/03/13 08:39:09;;;;;;;10.35;6.45;;;7.30;66.70;;;;;;5009119;28;20057;-65
2022/03/13 08:41:35;;;;;;;10.02;6.50;;;7.40;66.50;;;;;;5026110;28;20033;-65
2022/03/13 08:44:01;;;;;;;9.38;6.63;;;7.50;66.70;;;;;;4991238;28;20042;-65
2022/03/13 08:46:27;;;;;;;14.55;7.78;;;7.60;68.60;;;;;;5008360;28;20587;-65
2022/03/13 08:48:53;;;;;;;8.88;6.55;;;7.80;65.30;;;;;;4989629;28;20144;-65
2022/03/13 08:51:21;;;;;;;14.18;6.93;;;7.90;65.70;;;;;;4987759;28;20050;-65
2022/03/13 08:53:47;;;;;;;14.98;6.55;;;7.90;60.10;;;;;;5024570;28;20050;-65
2022/03/13 08:56:14;;;;;;;8.82;6.72;;;8.10;61.50;;;;;;5025835;28;20057;-65
2022/03/13 08:58:43;;;;;;;12.05;6.93;;;8.20;63.40;;;;;;5026669;28;20041;-65
2022/03/13 09:01:09;;;;;;;14.82;6.95;;;8.30;64.30;;;;;;5026686;28;20056;-66
2022/03/13 09:03:36;;;;;;;11.68;7.10;;;8.40;63.00;;;;;;4986596;28;20033;-65
2022/03/13 09:06:02;;;;;;;10.93;7.10;;;8.50;62.60;;;;;;5025284;28;20718;-66
2022/03/13 09:08:28;;;;;;;11.18;6.60;;;8.60;65.30;;;;;;5026269;28;20056;-65
2022/03/13 09:10:54;;;;;;;13.90;7.35;;;8.90;64.50;;;;;;5025643;28;20045;-66
2022/03/13 09:13:20;;;;;;;9.07;6.50;;;9.20;66.10;;;;;;5026395;28;20510;-65
2022/03/13 09:15:50;;;;;;;9.63;6.65;;;9.30;60.00;;;;;;5025368;28;20500;-65
2022/03/13 09:18:16;;;;;;;10.57;7.30;;;9.40;60.40;;;;;;5026767;28;20072;-65
2022/03/13 09:20:42;;;;;;;11.40;7.00;;;9.40;53.90;;;;;;5025282;28;20088;-66
2022/03/13 09:23:08;;;;;;;9.70;7.03;;;9.50;56.60;;;;;;5025939;28;20125;-65
2022/03/13 09:25:34;;;;;;;10.98;7.10;;;9.60;54.90;;;;;;5004232;28;20060;-65
2022/03/13 09:28:01;;;;;;;16.40;6.85;;;9.80;56.40;;;;;;5006617;28;20098;-65
2022/03/13 09:30:27;;;;;;;10.80;7.53;;;9.90;56.30;;;;;;5007731;28;20529;-65
2022/03/13 09:32:53;;;;;;;11.43;7.78;;;10.10;54.50;;;;;;5007250;28;20120;-66
2022/03/13 09:35:18;;;;;;;12.05;6.80;;;10.30;55.40;;;;;;5026108;28;20095;-65
2022/03/13 09:37:44;;;;;;;11.98;7.30;;;10.40;51.20;;;;;;5007823;28;20037;-66
2022/03/13 09:40:12;;;;;;;14.27;7.18;;;10.40;51.20;;;;;;5025370;28;20557;-66
2022/03/13 09:42:37;;;;;;;11.55;7.80;;;10.40;48.90;;;;;;5007981;28;20715;-66
2022/03/13 09:45:04;;;;;;;10.88;6.50;;;10.50;49.70;;;;;;5007671;28;20034;-65
2022/03/13 09:47:30;;;;;;;11.00;7.20;;;10.60;50.00;;;;;;5025662;28;20141;-66
2022/03/13 09:49:56;;;;;;;10.88;6.90;;;10.70;50.40;;;;;;5022593;28;20042;-65
2022/03/13 09:52:22;;;;;;;12.20;8.18;;;10.80;52.00;;;;;;5025842;28;20060;-65
2022/03/13 09:54:48;;;;;;;12.88;7.18;;;11.10;51.70;;;;;;5007470;28;20045;-66
2022/03/13 09:57:14;;;;;;;13.27;7.68;;;11.30;52.30;;;;;;5025136;28;20053;-66
2022/03/13 09:59:43;;;;;;;9.65;7.53;;;11.40;53.90;;;;;;5007539;28;20042;-66
2022/03/13 10:02:09;;;;;;;10.63;7.32;;;11.40;55.10;;;;;;4991015;28;20379;-67
2022/03/13 10:04:35;;;;;;;12.10;7.72;;;11.50;53.10;;;;;;5025502;28;20041;-66
2022/03/13 10:07:24;;;;;;;13.70;7.40;;;11.60;51.20;;;;;;5006987;28;20132;-66
2022/03/13 10:09:50;;;;;;;13.32;6.78;;;11.60;47.90;;;;;;5025110;28;20053;-66
2022/03/13 10:12:22;;;;;;;12.07;7.70;;;11.50;47.50;;;;;;5008612;28;20056;-66
2022/03/13 10:15:06;;;;;;;16.30;7.68;;;11.50;53.10;;;;;;5005104;28;20058;-66
2022/03/13 10:17:34;;;;;;;13.30;7.28;;;11.50;52.60;;;;;;5011980;28;20100;-66
2022/03/13 10:20:24;;;;;;;9.27;6.90;;;11.40;52.30;;;;;;5028299;28;20041;-65
2022/03/13 10:23:00;;;;;;;9.70;6.97;;;11.20;49.60;;;;;;5029648;28;20049;-66
2022/03/13 10:25:34;;;;;;;13.82;7.22;;;11.00;49.80;;;;;;5029027;28;20143;-66
2022/03/13 10:28:20;;;;;;;14.90;8.27;;;11.00;49.70;;;;;;5011424;28;20447;-65
2022/03/13 10:31:24;;;;;;;16.85;7.10;;;11.00;50.20;;;;;;5001101;28;20066;-66
2022/03/13 10:33:54;;;;;;;6.20;3.85;;;10.90;50.00;;;;;;5005907;28;20080;-65
2022/03/13 10:36:21;;;;;;;;;;;10.90;49.30;;;;;;5030432;28;20439;-65
2022/03/13 10:38:49;;;;;;;8.35;5.00;;;10.90;50.90;;;;;;5029183;28;19921;-65
2022/03/13 10:41:15;;;;;;;7.95;5.90;;;10.90;49.10;;;;;;5028183;28;20049;-66
2022/03/13 10:43:51;;;;;;;7.47;4.82;;;10.80;49.20;;;;;;5011243;28;20460;-65
2022/03/13 10:46:27;;;;;;;9.68;7.20;;;10.80;47.90;;;;;;5011027;28;20377;-66
2022/03/13 10:48:54;;;;;;;10.85;7.68;;;10.80;51.00;;;;;;5029194;28;20049;-66
2022/03/13 10:51:48;;;;;;;12.95;7.15;;;11.00;52.80;;;;;;4994022;28;20447;-66
2022/03/13 10:54:37;;;;;;;16.67;7.60;;;11.10;51.00;;;;;;5000984;28;20053;-66
2022/03/13 10:57:09;;;;;;;14.23;7.13;;;11.10;52.10;;;;;;5010063;28;20045;-66
2022/03/13 10:59:35;;;;;;;8.00;6.28;;;10.80;52.10;;;;;;5028564;28;20566;-65
2022/03/13 11:02:17;;;;;;;11.57;7.30;;;10.80;56.30;;;;;;4992571;28;20087;-66
2022/03/13 11:04:47;;;;;;;9.95;6.35;;;10.70;50.30;;;;;;5028397;28;20087;-65
2022/03/13 11:07:14;;;;;;;9.75;7.38;;;10.70;51.80;;;;;;5006616;28;20395;-66
2022/03/13 11:09:40;;;;;;;12.07;7.20;;;10.80;52.40;;;;;;5026094;28;20407;-66
2022/03/13 11:12:09;;;;;;;13.82;7.32;;;11.00;56.20;;;;;;5007154;28;20195;-66
2022/03/13 11:14:35;;;;;;;3.30;2.38;;;11.40;56.30;;;;;;5026390;28;20045;-66
2022/03/13 11:17:02;;;;;;;12.85;7.53;;;11.50;44.90;;;;;;4991962;28;20052;-66
2022/03/13 11:19:30;;;;;;;8.20;5.07;;;11.30;45.80;;;;;;5026437;28;20053;-66
2022/03/13 11:21:56;;;;;;;8.20;7.00;;;11.40;43.40;;;;;;5025966;28;20270;-66
2022/03/13 11:24:23;;;;;;;14.88;7.03;;;11.40;43.20;;;;;;5025749;28;20053;-66
2022/03/13 11:26:52;;;;;;;9.43;6.93;;;11.50;45.80;;;;;;5006839;28;20049;-66
2022/03/13 11:29:40;;;;;;;10.23;6.40;;;11.80;45.70;;;;;;5025410;28;20439;-66
2022/03/13 11:32:43;;;;;;;10.55;7.63;;;12.00;45.10;;;;;;4998617;28;20049;-66
2022/03/13 11:35:18;;;;;;;8.85;6.95;;;12.10;44.80;;;;;;5022329;28;20040;-66
2022/03/13 11:37:47;;;;;;;14.88;7.35;;;12.00;40.00;;;;;;5025033;28;20102;-66
2022/03/13 11:40:17;;;;;;;10.75;6.72;;;12.00;42.30;;;;;;5022173;28;20100;-66
2022/03/13 11:42:56;;;;;;;12.35;7.20;;;11.90;41.40;;;;;;5025275;28;20385;-66
2022/03/13 11:45:30;;;;;;;9.50;7.03;;;11.90;42.70;;;;;;4995190;28;20049;-66
2022/03/13 11:48:19;;;;;;;12.30;6.53;;;11.70;40.10;;;;;;5027782;28;20072;-66
2022/03/13 11:51:00;;;;;;;11.70;7.70;;;11.70;41.60;;;;;;5026615;28;20060;-66
2022/03/13 11:53:28;;;;;;;15.73;7.68;;;11.70;43.40;;;;;;5024710;28;20089;-66
2022/03/13 11:56:00;;;;;;;12.75;6.40;;;11.70;41.00;;;;;;5003760;28;20062;-65
2022/03/13 11:58:49;;;;;;;8.73;6.03;;;11.70;41.00;;;;;;5027138;28;20522;-65
2022/03/13 12:01:20;;;;;;;8.43;6.70;;;11.70;39.50;;;;;;5026134;28;20100;-66
2022/03/13 12:04:07;;;;;;;9.30;6.05;;;11.80;39.30;;;;;;5009474;28;20087;-66
2022/03/13 12:06:39;;;;;;;13.75;7.40;;;11.90;38.50;;;;;;4996174;28;20124;-66
2022/03/13 12:09:31;;;;;;;13.25;5.70;;;12.00;40.10;;;;;;5025310;28;20037;-67
2022/03/13 12:12:20;;;;;;;9.70;7.13;;;12.10;38.90;;;;;;5001086;28;20061;-66
2022/03/13 12:14:54;;;;;;;12.52;6.35;;;12.20;36.20;;;;;;5021251;28;20049;-66
2022/03/13 12:17:25;;;;;;;9.88;6.95;;;12.30;36.70;;;;;;5003223;28;20057;-66
2022/03/13 12:19:54;;;;;;;10.65;7.45;;;12.40;38.60;;;;;;5004710;28;20046;-66
2022/03/13 12:22:21;;;;;;;13.50;7.07;;;12.50;39.10;;;;;;5005155;28;20100;-66
2022/03/13 12:24:55;;;;;;;10.52;6.80;;;12.60;38.90;;;;;;5008383;28;20288;-66
2022/03/13 12:27:22;;;;;;;15.07;7.53;;;12.50;36.00;;;;;;5006583;28;20045;-66
2022/03/13 12:29:55;;;;;;;12.23;7.07;;;12.50;36.10;;;;;;5026059;28;20041;-66
2022/03/13 12:32:26;;;;;;;11.93;7.22;;;12.40;35.30;;;;;;5025688;28;20399;-67
2022/03/13 12:34:55;;;;;;;10.85;7.07;;;12.50;36.30;;;;;;5026077;28;20377;-66
2022/03/13 12:37:20;;;;;;;10.10;6.35;;;12.60;35.70;;;;;;5009907;28;20052;-65
2022/03/13 12:39:51;;;;;;;10.48;6.40;;;12.60;35.40;;;;;;5025313;28;20095;-64
2022/03/13 12:42:26;;;;;;;7.15;3.70;;;12.60;35.50;;;;;;5025700;28;20100;-64
2022/03/13 12:45:12;;;;;;;9.73;6.10;;;12.80;34.50;;;;;;5025426;28;20504;-63
2022/03/13 12:47:42;;;;;;;11.10;5.97;;;12.90;35.10;;;;;;5025260;28;20107;-64
2022/03/13 12:50:10;;;;;;;10.13;6.32;;;13.20;31.10;;;;;;5025470;28;20080;-64
2022/03/13 12:52:36;;;;;;;9.75;5.53;;;13.50;32.90;;;;;;5025038;28;20361;-64